sensor_id;sensor_type;location;lat;lon;timestamp;pressure;altitude;pressure_sealevel;temperature;humidity
46392;BME280;32098;49.448;7.904;2024-01-30T00:01:57;99481.19;;;3.16;83.30
46392;BME280;32098;49.448;7.904;2024-01-30T00:04:24;99479.25;;;3.09;83.24
46392;BME280;32098;49.448;7.904;2024-01-30T00:06:51;99472.59;;;2.95;84.81
46392;BME280;32098;49.448;7.904;2024-01-30T00:09:19;99482.44;;;2.93;86.04
46392;BME280;32098;49.448;7.904;2024-01-30T00:11:46;99480.66;;;3.03;87.41
46392;BME280;32098;49.448;7.904;2024-01-30T00:14:12;99480.34;;;3.06;87.01
46392;BME280;32098;49.448;7.904;2024-01-30T00:16:39;99475.91;;;3.07;87.62
46392;BME280;32098;49.448;7.904;2024-01-30T00:19:06;99468.44;;;3.02;87.09
46392;BME280;32098;49.448;7.904;2024-01-30T00:21:35;99480.06;;;3.09;86.62
46392;BME280;32098;49.448;7.904;2024-01-30T00:24:02;99486.28;;;2.99;85.53
46392;BME280;32098;49.448;7.904;2024-01-30T00:26:29;99486.44;;;2.97;84.32
46392;BME280;32098;49.448;7.904;2024-01-30T00:28:55;99478.56;;;2.97;83.00
46392;BME280;32098;49.448;7.904;2024-01-30T00:31:22;99477.88;;;2.95;83.00
46392;BME280;32098;49.448;7.904;2024-01-30T00:33:49;99483.94;;;2.86;83.25
46392;BME280;32098;49.448;7.904;2024-01-30T00:36:15;99469.16;;;2.85;83.09
46392;BME280;32098;49.448;7.904;2024-01-30T00:38:42;99481.88;;;2.80;82.70
46392;BME280;32098;49.448;7.904;2024-01-30T00:41:09;99478.25;;;2.81;82.94
46392;BME280;32098;49.448;7.904;2024-01-30T00:43:36;99455.28;;;2.64;82.51
46392;BME280;32098;49.448;7.904;2024-01-30T00:46:03;99473.72;;;2.83;82.77
46392;BME280;32098;49.448;7.904;2024-01-30T00:48:30;99479.81;;;2.93;83.26
46392;BME280;32098;49.448;7.904;2024-01-30T00:50:56;99451.13;;;2.71;82.35
46392;BME280;32098;49.448;7.904;2024-01-30T00:53:23;99486.97;;;2.81;82.16
46392;BME280;32098;49.448;7.904;2024-01-30T00:55:49;99477.84;;;2.76;81.49
46392;BME280;32098;49.448;7.904;2024-01-30T00:58:16;99478.81;;;2.65;81.50
46392;BME280;32098;49.448;7.904;2024-01-30T01:00:43;99487.38;;;2.67;81.32
46392;BME280;32098;49.448;7.904;2024-01-30T01:03:10;99489.03;;;2.68;81.57
46392;BME280;32098;49.448;7.904;2024-01-30T01:05:36;99479.91;;;2.63;81.53
46392;BME280;32098;49.448;7.904;2024-01-30T01:08:03;99473.94;;;2.51;81.84
46392;BME280;32098;49.448;7.904;2024-01-30T01:10:30;99485.84;;;2.55;82.87
46392;BME280;32098;49.448;7.904;2024-01-30T01:12:57;99486.38;;;2.49;83.25
46392;BME280;32098;49.448;7.904;2024-01-30T01:15:24;99482.22;;;2.47;82.98
46392;BME280;32098;49.448;7.904;2024-01-30T01:17:55;99478.31;;;2.32;83.58
46392;BME280;32098;49.448;7.904;2024-01-30T01:20:22;99479.97;;;2.33;84.10
46392;BME280;32098;49.448;7.904;2024-01-30T01:22:48;99484.66;;;2.29;83.81
46392;BME280;32098;49.448;7.904;2024-01-30T01:25:15;99480.50;;;2.27;84.19
46392;BME280;32098;49.448;7.904;2024-01-30T01:27:42;99443.94;;;2.04;83.76
46392;BME280;32098;49.448;7.904;2024-01-30T01:30:10;99486.06;;;2.33;82.59
46392;BME280;32098;49.448;7.904;2024-01-30T01:32:38;99478.03;;;2.25;82.48
46392;BME280;32098;49.448;7.904;2024-01-30T01:35:05;99473.31;;;2.29;82.05
46392;BME280;32098;49.448;7.904;2024-01-30T01:37:32;99476.91;;;2.28;84.35
46392;BME280;32098;49.448;7.904;2024-01-30T01:39:59;99449.22;;;2.14;84.04
46392;BME280;32098;49.448;7.904;2024-01-30T01:42:26;99460.03;;;2.20;83.53
46392;BME280;32098;49.448;7.904;2024-01-30T01:44:53;99470.69;;;2.29;82.89
46392;BME280;32098;49.448;7.904;2024-01-30T01:47:19;99427.03;;;1.88;82.19
46392;BME280;32098;49.448;7.904;2024-01-30T01:49:47;99450.72;;;2.07;82.06
46392;BME280;32098;49.448;7.904;2024-01-30T01:52:14;99482.94;;;2.18;81.37
46392;BME280;32098;49.448;7.904;2024-01-30T01:54:41;99484.34;;;2.13;81.32
46392;BME280;32098;49.448;7.904;2024-01-30T01:57:08;99484.34;;;2.13;81.12
46392;BME280;32098;49.448;7.904;2024-01-30T01:59:35;99484.34;;;2.13;81.71
46392;BME280;32098;49.448;7.904;2024-01-30T02:02:03;99487.06;;;2.11;81.63
46392;BME280;32098;49.448;7.904;2024-01-30T02:04:30;99479.75;;;2.05;82.10
46392;BME280;32098;49.448;7.904;2024-01-30T02:06:57;99450.91;;;1.85;82.96
46392;BME280;32098;49.448;7.904;2024-01-30T02:09:23;99485.78;;;1.96;82.88
46392;BME280;32098;49.448;7.904;2024-01-30T02:11:50;99486.22;;;2.01;82.86
46392;BME280;32098;49.448;7.904;2024-01-30T02:14:17;99478.16;;;1.93;82.26
46392;BME280;32098;49.448;7.904;2024-01-30T02:16:44;99483.16;;;1.96;82.10
46392;BME280;32098;49.448;7.904;2024-01-30T02:19:10;99480.78;;;1.93;81.66
46392;BME280;32098;49.448;7.904;2024-01-30T02:21:38;99477.59;;;1.90;81.78
46392;BME280;32098;49.448;7.904;2024-01-30T02:24:05;99472.59;;;1.87;81.88
46392;BME280;32098;49.448;7.904;2024-01-30T02:26:32;99468.88;;;1.89;82.23
46392;BME280;32098;49.448;7.904;2024-01-30T02:28:59;99478.44;;;1.90;81.79
46392;BME280;32098;49.448;7.904;2024-01-30T02:31:26;99473.00;;;1.82;81.40
46392;BME280;32098;49.448;7.904;2024-01-30T02:33:52;99475.09;;;1.88;80.96
46392;BME280;32098;49.448;7.904;2024-01-30T02:36:19;99473.75;;;1.94;81.19
46392;BME280;32098;49.448;7.904;2024-01-30T02:38:46;99477.16;;;1.85;80.40
46392;BME280;32098;49.448;7.904;2024-01-30T02:41:13;99484.34;;;1.83;80.94
46392;BME280;32098;49.448;7.904;2024-01-30T02:43:40;99473.69;;;1.84;81.45
46392;BME280;32098;49.448;7.904;2024-01-30T02:46:07;99478.69;;;1.87;81.42
46392;BME280;32098;49.448;7.904;2024-01-30T02:48:33;99473.13;;;1.81;80.93
46392;BME280;32098;49.448;7.904;2024-01-30T02:51:00;99466.78;;;1.83;81.66
46392;BME280;32098;49.448;7.904;2024-01-30T02:53:26;99470.50;;;1.81;80.92
46392;BME280;32098;49.448;7.904;2024-01-30T02:55:53;99468.16;;;1.78;81.17
46392;BME280;32098;49.448;7.904;2024-01-30T02:58:20;99468.25;;;1.76;80.91
46392;BME280;32098;49.448;7.904;2024-01-30T03:00:49;99483.50;;;1.82;81.19
46392;BME280;32098;49.448;7.904;2024-01-30T03:03:16;99472.16;;;1.82;81.12
46392;BME280;32098;49.448;7.904;2024-01-30T03:05:43;99470.38;;;1.82;81.10
46392;BME280;32098;49.448;7.904;2024-01-30T03:08:09;99475.63;;;1.82;81.21
46392;BME280;32098;49.448;7.904;2024-01-30T03:10:36;99467.06;;;1.80;81.88
46392;BME280;32098;49.448;7.904;2024-01-30T03:13:03;99469.34;;;1.74;82.10
46392;BME280;32098;49.448;7.904;2024-01-30T03:15:30;99468.66;;;1.72;82.00
46392;BME280;32098;49.448;7.904;2024-01-30T03:17:56;99450.69;;;1.67;82.17
46392;BME280;32098;49.448;7.904;2024-01-30T03:20:23;99472.38;;;1.69;82.26
46392;BME280;32098;49.448;7.904;2024-01-30T03:22:50;99475.25;;;1.66;81.88
46392;BME280;32098;49.448;7.904;2024-01-30T03:25:17;99475.84;;;1.70;81.60
46392;BME280;32098;49.448;7.904;2024-01-30T03:27:43;99470.09;;;1.55;81.36
46392;BME280;32098;49.448;7.904;2024-01-30T03:30:10;99462.72;;;1.49;81.92
46392;BME280;32098;49.448;7.904;2024-01-30T03:32:37;99443.63;;;1.37;81.84
46392;BME280;32098;49.448;7.904;2024-01-30T03:35:04;99459.41;;;1.47;81.75
46392;BME280;32098;49.448;7.904;2024-01-30T03:37:31;99470.09;;;1.55;81.27
46392;BME280;32098;49.448;7.904;2024-01-30T03:39:58;99429.16;;;1.22;81.42
46392;BME280;32098;49.448;7.904;2024-01-30T03:42:24;99462.69;;;1.39;82.25
46392;BME280;32098;49.448;7.904;2024-01-30T03:44:51;99468.06;;;1.38;81.69
46392;BME280;32098;49.448;7.904;2024-01-30T03:47:20;99466.59;;;1.45;81.49
46392;BME280;32098;49.448;7.904;2024-01-30T03:49:47;99459.47;;;1.36;82.29
46392;BME280;32098;49.448;7.904;2024-01-30T03:52:13;99425.81;;;1.00;82.36
46392;BME280;32098;49.448;7.904;2024-01-30T03:54:40;99469.78;;;1.28;82.76
46392;BME280;32098;49.448;7.904;2024-01-30T03:57:07;99474.75;;;1.31;84.01
46392;BME280;32098;49.448;7.904;2024-01-30T03:59:33;99467.63;;;1.33;84.03
46392;BME280;32098;49.448;7.904;2024-01-30T04:02:00;99460.56;;;1.33;83.62
46392;BME280;32098;49.448;7.904;2024-01-30T04:04:27;99445.00;;;1.21;83.42
46392;BME280;32098;49.448;7.904;2024-01-30T04:06:54;99459.28;;;1.28;83.97
46392;BME280;32098;49.448;7.904;2024-01-30T04:09:21;99464.72;;;1.36;83.81
46392;BME280;32098;49.448;7.904;2024-01-30T04:11:48;99458.78;;;1.34;83.51
46392;BME280;32098;49.448;7.904;2024-01-30T04:14:15;99461.53;;;1.32;83.28
46392;BME280;32098;49.448;7.904;2024-01-30T04:16:41;99459.28;;;1.28;83.06
46392;BME280;32098;49.448;7.904;2024-01-30T04:19:08;99459.47;;;1.36;82.75
46392;BME280;32098;49.448;7.904;2024-01-30T04:21:35;99467.34;;;1.36;83.21
46392;BME280;32098;49.448;7.904;2024-01-30T04:24:01;99465.69;;;1.35;82.90
46392;BME280;32098;49.448;7.904;2024-01-30T04:26:28;99461.53;;;1.32;82.34
46392;BME280;32098;49.448;7.904;2024-01-30T04:28:55;99439.06;;;1.19;83.00
46392;BME280;32098;49.448;7.904;2024-01-30T04:31:21;99463.00;;;1.25;82.52
46392;BME280;32098;49.448;7.904;2024-01-30T04:33:48;99460.44;;;1.35;82.71
46392;BME280;32098;49.448;7.904;2024-01-30T04:36:15;99407.78;;;1.06;82.89
46392;BME280;32098;49.448;7.904;2024-01-30T04:38:41;99466.63;;;1.34;82.77
46392;BME280;32098;49.448;7.904;2024-01-30T04:41:08;99460.19;;;1.38;83.27
46392;BME280;32098;49.448;7.904;2024-01-30T04:43:34;99456.28;;;1.32;82.70
46392;BME280;32098;49.448;7.904;2024-01-30T04:46:01;99466.00;;;1.41;82.82
46392;BME280;32098;49.448;7.904;2024-01-30T04:48:28;99464.22;;;1.42;83.12
46392;BME280;32098;49.448;7.904;2024-01-30T04:50:55;99470.28;;;1.42;83.28
46392;BME280;32098;49.448;7.904;2024-01-30T04:53:22;99464.06;;;1.43;83.08
46392;BME280;32098;49.448;7.904;2024-01-30T04:55:50;99471.00;;;1.44;83.58
46392;BME280;32098;49.448;7.904;2024-01-30T04:58:16;99448.28;;;1.34;83.72
46392;BME280;32098;49.448;7.904;2024-01-30T05:00:43;99468.75;;;1.40;83.63
46392;BME280;32098;49.448;7.904;2024-01-30T05:03:10;99472.38;;;1.48;83.82
46392;BME280;32098;49.448;7.904;2024-01-30T05:05:36;99463.25;;;1.43;83.99
46392;BME280;32098;49.448;7.904;2024-01-30T05:08:03;99471.25;;;1.41;83.33
46392;BME280;32098;49.448;7.904;2024-01-30T05:10:30;99475.41;;;1.44;83.55
46392;BME280;32098;49.448;7.904;2024-01-30T05:12:57;99474.31;;;1.46;83.65
46392;BME280;32098;49.448;7.904;2024-01-30T05:15:24;99478.38;;;1.50;83.77
46392;BME280;32098;49.448;7.904;2024-01-30T05:17:50;99480.16;;;1.50;83.41
46392;BME280;32098;49.448;7.904;2024-01-30T05:20:17;99471.88;;;1.34;83.49
46392;BME280;32098;49.448;7.904;2024-01-30T05:22:44;99447.06;;;1.17;82.71
46392;BME280;32098;49.448;7.904;2024-01-30T05:25:14;99484.16;;;1.33;82.76
46392;BME280;32098;49.448;7.904;2024-01-30T05:27:41;99483.34;;;1.33;83.19
46392;BME280;32098;49.448;7.904;2024-01-30T05:30:08;99485.38;;;1.29;82.08
46392;BME280;32098;49.448;7.904;2024-01-30T05:32:35;99476.19;;;1.35;83.63
46392;BME280;32098;49.448;7.904;2024-01-30T05:35:02;99484.75;;;1.37;83.13
46392;BME280;32098;49.448;7.904;2024-01-30T05:37:29;99477.34;;;1.42;82.54
46392;BME280;32098;49.448;7.904;2024-01-30T05:39:56;99468.34;;;1.24;81.98
46392;BME280;32098;49.448;7.904;2024-01-30T05:42:23;99488.84;;;1.30;81.82
46392;BME280;32098;49.448;7.904;2024-01-30T05:44:50;99497.66;;;1.29;82.26
46392;BME280;32098;49.448;7.904;2024-01-30T05:47:16;99492.41;;;1.29;81.91
46392;BME280;32098;49.448;7.904;2024-01-30T05:49:43;99484.69;;;1.27;81.50
46392;BME280;32098;49.448;7.904;2024-01-30T05:52:10;99442.69;;;2.58;100.00
46392;BME280;32098;49.448;7.904;2024-01-30T05:54:36;99485.94;;;3.78;100.00
46392;BME280;32098;49.448;7.904;2024-01-30T05:57:03;99494.66;;;4.25;100.00
46392;BME280;32098;49.448;7.904;2024-01-30T05:59:30;99483.38;;;4.60;92.74
46392;BME280;32098;49.448;7.904;2024-01-30T06:01:56;99480.88;;;5.21;88.32
46392;BME280;32098;49.448;7.904;2024-01-30T06:04:23;99475.59;;;4.86;70.09
46392;BME280;32098;49.448;7.904;2024-01-30T06:06:50;99480.78;;;4.23;68.64
46392;BME280;32098;49.448;7.904;2024-01-30T06:09:17;99483.94;;;3.53;69.88
46392;BME280;32098;49.448;7.904;2024-01-30T06:11:44;99484.09;;;2.94;72.50
46392;BME280;32098;49.448;7.904;2024-01-30T06:14:11;99487.50;;;2.66;73.76
46392;BME280;32098;49.448;7.904;2024-01-30T06:16:38;99480.09;;;2.31;74.48
46392;BME280;32098;49.448;7.904;2024-01-30T06:19:04;99485.44;;;2.10;76.45
46392;BME280;32098;49.448;7.904;2024-01-30T06:21:32;99487.06;;;2.11;79.08
46392;BME280;32098;49.448;7.904;2024-01-30T06:24:03;99491.56;;;1.90;79.07
46392;BME280;32098;49.448;7.904;2024-01-30T06:26:30;99494.41;;;1.78;79.89
46392;BME280;32098;49.448;7.904;2024-01-30T06:28:56;99493.50;;;1.68;80.29
46392;BME280;32098;49.448;7.904;2024-01-30T06:31:23;99489.47;;;1.64;79.67
46392;BME280;32098;49.448;7.904;2024-01-30T06:33:49;99479.06;;;1.52;80.28
46392;BME280;32098;49.448;7.904;2024-01-30T06:36:16;99480.84;;;1.52;80.84
46392;BME280;32098;49.448;7.904;2024-01-30T06:38:43;99489.50;;;1.43;80.47
46392;BME280;32098;49.448;7.904;2024-01-30T06:41:10;99378.56;;;0.69;80.99
46392;BME280;32098;49.448;7.904;2024-01-30T06:43:36;99484.78;;;1.26;81.42
46392;BME280;32098;49.448;7.904;2024-01-30T06:46:03;99477.22;;;1.23;82.46
46392;BME280;32098;49.448;7.904;2024-01-30T06:48:30;99478.94;;;1.13;84.11
46392;BME280;32098;49.448;7.904;2024-01-30T06:50:56;99479.56;;;1.05;84.69
46392;BME280;32098;49.448;7.904;2024-01-30T06:53:24;99482.19;;;1.05;84.58
46392;BME280;32098;49.448;7.904;2024-01-30T06:55:52;99485.88;;;1.03;84.50
46392;BME280;32098;49.448;7.904;2024-01-30T06:58:19;99485.16;;;1.01;85.16
46392;BME280;32098;49.448;7.904;2024-01-30T07:00:45;99497.56;;;0.99;85.31
46392;BME280;32098;49.448;7.904;2024-01-30T07:03:12;99509.25;;;0.94;85.53
46392;BME280;32098;49.448;7.904;2024-01-30T07:05:38;99493.59;;;1.04;85.60
46392;BME280;32098;49.448;7.904;2024-01-30T07:08:05;99467.81;;;0.88;85.71
46392;BME280;32098;49.448;7.904;2024-01-30T07:10:32;99493.81;;;1.12;86.22
46392;BME280;32098;49.448;7.904;2024-01-30T07:13:00;99494.13;;;1.19;86.46
46392;BME280;32098;49.448;7.904;2024-01-30T07:15:27;99499.00;;;1.23;86.38
46392;BME280;32098;49.448;7.904;2024-01-30T07:17:54;99503.75;;;1.29;86.63
46392;BME280;32098;49.448;7.904;2024-01-30T07:20:20;99503.44;;;1.23;86.28
46392;BME280;32098;49.448;7.904;2024-01-30T07:22:47;99502.00;;;1.19;86.50
46392;BME280;32098;49.448;7.904;2024-01-30T07:25:14;99502.91;;;1.29;86.59
46392;BME280;32098;49.448;7.904;2024-01-30T07:27:42;99506.00;;;1.34;87.17
46392;BME280;32098;49.448;7.904;2024-01-30T07:30:08;99504.84;;;1.27;86.25
46392;BME280;32098;49.448;7.904;2024-01-30T07:32:35;99511.22;;;1.34;86.58
46392;BME280;32098;49.448;7.904;2024-01-30T07:35:02;99512.06;;;1.34;87.13
46392;BME280;32098;49.448;7.904;2024-01-30T07:37:34;99512.66;;;1.38;87.29
46392;BME280;32098;49.448;7.904;2024-01-30T07:40:02;99515.28;;;1.38;88.42
46392;BME280;32098;49.448;7.904;2024-01-30T07:42:30;99513.75;;;1.35;88.39
46392;BME280;32098;49.448;7.904;2024-01-30T07:44:57;99513.13;;;1.43;88.95
46392;BME280;32098;49.448;7.904;2024-01-30T07:47:23;99508.88;;;1.51;88.65
46392;BME280;32098;49.448;7.904;2024-01-30T07:49:50;99502.09;;;1.70;90.53
46392;BME280;32098;49.448;7.904;2024-01-30T07:52:17;99512.88;;;1.76;90.02
46392;BME280;32098;49.448;7.904;2024-01-30T07:54:44;99525.84;;;1.98;91.41
46392;BME280;32098;49.448;7.904;2024-01-30T07:57:11;99521.91;;;2.13;91.92
46392;BME280;32098;49.448;7.904;2024-01-30T07:59:38;99526.47;;;2.11;89.37
46392;BME280;32098;49.448;7.904;2024-01-30T08:02:04;99521.91;;;2.13;87.96
46392;BME280;32098;49.448;7.904;2024-01-30T08:04:31;99521.81;;;2.15;86.81
46392;BME280;32098;49.448;7.904;2024-01-30T08:06:58;99527.16;;;2.13;85.25
46392;BME280;32098;49.448;7.904;2024-01-30T08:09:26;99525.28;;;2.15;85.45
46392;BME280;32098;49.448;7.904;2024-01-30T08:11:52;99525.63;;;2.11;85.81
46392;BME280;32098;49.448;7.904;2024-01-30T08:14:19;99521.81;;;2.15;85.97
46392;BME280;32098;49.448;7.904;2024-01-30T08:16:45;99540.22;;;2.24;86.35
46392;BME280;32098;49.448;7.904;2024-01-30T08:19:12;99543.28;;;2.30;86.28
46392;BME280;32098;49.448;7.904;2024-01-30T08:21:38;99532.38;;;2.34;85.81
46392;BME280;32098;49.448;7.904;2024-01-30T08:24:06;99537.53;;;2.36;85.92
46392;BME280;32098;49.448;7.904;2024-01-30T08:26:33;99535.59;;;2.38;86.29
46392;BME280;32098;49.448;7.904;2024-01-30T08:29:01;99535.41;;;2.30;85.42
46392;BME280;32098;49.448;7.904;2024-01-30T08:31:28;99535.59;;;2.38;86.75
46392;BME280;32098;49.448;7.904;2024-01-30T08:33:55;99533.91;;;2.37;86.58
46392;BME280;32098;49.448;7.904;2024-01-30T08:36:22;99537.81;;;2.42;87.03
46392;BME280;32098;49.448;7.904;2024-01-30T08:38:48;99538.25;;;2.47;87.19
46392;BME280;32098;49.448;7.904;2024-01-30T08:41:15;99545.03;;;2.50;87.23
46392;BME280;32098;49.448;7.904;2024-01-30T08:43:42;99537.34;;;2.77;89.25
46392;BME280;32098;49.448;7.904;2024-01-30T08:46:08;99533.78;;;2.78;88.68
46392;BME280;32098;49.448;7.904;2024-01-30T08:48:36;99520.47;;;2.70;88.69
46392;BME280;32098;49.448;7.904;2024-01-30T08:51:03;99535.16;;;2.82;89.07
46392;BME280;32098;49.448;7.904;2024-01-30T08:53:29;99411.94;;;2.30;89.79
46392;BME280;32098;49.448;7.904;2024-01-30T08:55:56;99528.94;;;3.21;90.00
46392;BME280;32098;49.448;7.904;2024-01-30T08:58:25;99530.47;;;3.33;89.72
46392;BME280;32098;49.448;7.904;2024-01-30T09:00:52;99535.44;;;3.46;89.62
46392;BME280;32098;49.448;7.904;2024-01-30T09:03:19;99526.88;;;3.63;90.36
46392;BME280;32098;49.448;7.904;2024-01-30T09:05:46;99518.66;;;3.76;90.96
46392;BME280;32098;49.448;7.904;2024-01-30T09:08:12;99525.84;;;3.93;91.07
46392;BME280;32098;49.448;7.904;2024-01-30T09:10:39;99525.09;;;4.10;91.17
46392;BME280;32098;49.448;7.904;2024-01-30T09:13:07;99517.38;;;4.26;91.20
46392;BME280;32098;49.448;7.904;2024-01-30T09:15:34;99514.81;;;4.44;91.27
46392;BME280;32098;49.448;7.904;2024-01-30T09:18:02;99519.44;;;4.59;91.37
46392;BME280;32098;49.448;7.904;2024-01-30T09:20:28;99523.94;;;4.76;90.75
46392;BME280;32098;49.448;7.904;2024-01-30T09:23:00;99521.66;;;4.91;90.51
46392;BME280;32098;49.448;7.904;2024-01-30T09:25:26;99531.69;;;5.05;91.60
46392;BME280;32098;49.448;7.904;2024-01-30T09:27:53;99504.19;;;5.08;91.22
46392;BME280;32098;49.448;7.904;2024-01-30T09:30:20;99513.22;;;5.23;91.15
46392;BME280;32098;49.448;7.904;2024-01-30T09:32:47;99509.59;;;5.24;89.52
46392;BME280;32098;49.448;7.904;2024-01-30T09:35:14;99534.44;;;5.49;88.95
46392;BME280;32098;49.448;7.904;2024-01-30T09:37:41;99536.97;;;5.58;88.77
46392;BME280;32098;49.448;7.904;2024-01-30T09:40:08;99544.88;;;5.76;88.49
46392;BME280;32098;49.448;7.904;2024-01-30T09:42:36;99502.38;;;5.69;88.47
46392;BME280;32098;49.448;7.904;2024-01-30T09:45:05;99543.53;;;5.97;87.23
46392;BME280;32098;49.448;7.904;2024-01-30T09:47:42;99541.63;;;6.07;86.27
46392;BME280;32098;49.448;7.904;2024-01-30T09:50:14;99537.22;;;6.16;85.33
46392;BME280;32098;49.448;7.904;2024-01-30T09:52:43;99545.53;;;6.29;84.80
46392;BME280;32098;49.448;7.904;2024-01-30T09:55:10;99540.16;;;6.39;83.97
46392;BME280;32098;49.448;7.904;2024-01-30T09:57:37;99547.13;;;6.48;83.46
46392;BME280;32098;49.448;7.904;2024-01-30T10:00:04;99541.56;;;6.59;83.08
46392;BME280;32098;49.448;7.904;2024-01-30T10:02:40;99544.88;;;6.61;82.85
46392;BME280;32098;49.448;7.904;2024-01-30T10:05:07;99543.25;;;6.68;82.19
46392;BME280;32098;49.448;7.904;2024-01-30T10:07:34;99527.91;;;6.71;81.72
46392;BME280;32098;49.448;7.904;2024-01-30T10:10:01;99522.25;;;6.74;81.04
46392;BME280;32098;49.448;7.904;2024-01-30T10:12:29;99530.41;;;6.89;81.38
46392;BME280;32098;49.448;7.904;2024-01-30T10:14:56;99535.59;;;6.99;80.60
46392;BME280;32098;49.448;7.904;2024-01-30T10:17:25;99501.47;;;6.96;80.23
46392;BME280;32098;49.448;7.904;2024-01-30T10:19:59;99533.50;;;7.26;80.37
46392;BME280;32098;49.448;7.904;2024-01-30T10:22:27;99523.94;;;7.42;80.06
46392;BME280;32098;49.448;7.904;2024-01-30T10:24:54;99529.06;;;7.51;79.80
46392;BME280;32098;49.448;7.904;2024-01-30T10:27:26;99535.19;;;7.68;79.01
46392;BME280;32098;49.448;7.904;2024-01-30T10:29:53;99536.16;;;7.83;78.85
46392;BME280;32098;49.448;7.904;2024-01-30T10:32:20;99527.88;;;7.94;78.06
46392;BME280;32098;49.448;7.904;2024-01-30T10:34:47;99529.84;;;8.08;78.37
46392;BME280;32098;49.448;7.904;2024-01-30T10:37:16;99533.25;;;8.33;77.76
46392;BME280;32098;49.448;7.904;2024-01-30T10:39:44;99547.59;;;8.54;76.92
46392;BME280;32098;49.448;7.904;2024-01-30T10:42:13;99536.94;;;8.71;76.46
46392;BME280;32098;49.448;7.904;2024-01-30T10:45:15;99541.88;;;8.82;75.53
46392;BME280;32098;49.448;7.904;2024-01-30T10:48:02;99540.84;;;8.83;74.79
46392;BME280;32098;49.448;7.904;2024-01-30T10:50:32;99548.47;;;8.86;74.45
46392;BME280;32098;49.448;7.904;2024-01-30T10:53:00;99544.66;;;8.88;74.89
46392;BME280;32098;49.448;7.904;2024-01-30T10:55:28;99548.66;;;8.84;74.60
46392;BME280;32098;49.448;7.904;2024-01-30T10:57:56;99554.78;;;8.85;73.70
46392;BME280;32098;49.448;7.904;2024-01-30T11:00:23;99538.22;;;8.75;74.23
46392;BME280;32098;49.448;7.904;2024-01-30T11:02:50;99549.00;;;8.81;74.06
46392;BME280;32098;49.448;7.904;2024-01-30T11:05:24;99539.56;;;8.79;73.99
46392;BME280;32098;49.448;7.904;2024-01-30T11:07:58;99529.78;;;8.79;73.86
46392;BME280;32098;49.448;7.904;2024-01-30T11:10:25;99531.94;;;8.76;73.91
46392;BME280;32098;49.448;7.904;2024-01-30T11:12:52;99529.63;;;8.73;74.08
46392;BME280;32098;49.448;7.904;2024-01-30T11:15:18;99531.28;;;8.74;74.06
46392;BME280;32098;49.448;7.904;2024-01-30T11:17:51;99529.78;;;8.79;74.46
46392;BME280;32098;49.448;7.904;2024-01-30T11:20:23;99525.63;;;8.77;74.05
46392;BME280;32098;49.448;7.904;2024-01-30T11:22:52;99515.34;;;8.74;73.97
46392;BME280;32098;49.448;7.904;2024-01-30T11:25:20;99514.53;;;8.73;74.23
46392;BME280;32098;49.448;7.904;2024-01-30T11:27:50;99491.38;;;8.59;74.35
46392;BME280;32098;49.448;7.904;2024-01-30T11:30:31;99498.97;;;8.62;74.73
46392;BME280;32098;49.448;7.904;2024-01-30T11:33:06;99509.34;;;8.80;74.49
46392;BME280;32098;49.448;7.904;2024-01-30T11:35:44;99511.66;;;8.83;74.75
46392;BME280;32098;49.448;7.904;2024-01-30T11:38:13;99508.16;;;8.82;75.03
46392;BME280;32098;49.448;7.904;2024-01-30T11:40:40;99513.31;;;8.84;74.83
46392;BME280;32098;49.448;7.904;2024-01-30T11:43:08;99488.47;;;8.77;74.81
46392;BME280;32098;49.448;7.904;2024-01-30T11:45:36;99502.66;;;8.92;74.74
46392;BME280;32098;49.448;7.904;2024-01-30T11:48:04;99502.28;;;8.95;74.36
46392;BME280;32098;49.448;7.904;2024-01-30T11:50:35;99498.28;;;8.99;74.33
46392;BME280;32098;49.448;7.904;2024-01-30T11:53:02;99502.88;;;9.05;74.49
46392;BME280;32098;49.448;7.904;2024-01-30T11:55:29;99492.75;;;9.08;73.92
46392;BME280;32098;49.448;7.904;2024-01-30T11:58:00;99488.91;;;9.11;74.00
46392;BME280;32098;49.448;7.904;2024-01-30T12:00:28;99488.59;;;9.14;74.23
46392;BME280;32098;49.448;7.904;2024-01-30T12:02:56;99485.22;;;9.20;73.99
46392;BME280;32098;49.448;7.904;2024-01-30T12:05:24;99485.34;;;9.26;74.44
46392;BME280;32098;49.448;7.904;2024-01-30T12:07:51;99483.81;;;9.32;74.08
46392;BME280;32098;49.448;7.904;2024-01-30T12:10:18;99483.81;;;9.32;73.85
46392;BME280;32098;49.448;7.904;2024-01-30T12:12:47;99483.44;;;9.35;73.49
46392;BME280;32098;49.448;7.904;2024-01-30T12:15:14;99479.06;;;9.42;73.80
46392;BME280;32098;49.448;7.904;2024-01-30T12:17:42;99483.31;;;9.51;73.34
46392;BME280;32098;49.448;7.904;2024-01-30T12:20:10;99478.09;;;9.58;72.74
46392;BME280;32098;49.448;7.904;2024-01-30T12:25:07;99486.09;;;9.72;73.17
46392;BME280;32098;49.448;7.904;2024-01-30T12:27:38;99482.94;;;9.77;72.43
46392;BME280;32098;49.448;7.904;2024-01-30T12:30:09;99482.19;;;9.83;72.54
46392;BME280;32098;49.448;7.904;2024-01-30T12:32:39;99477.78;;;9.90;72.54
46392;BME280;32098;49.448;7.904;2024-01-30T12:35:16;99480.72;;;9.95;72.29
46392;BME280;32098;49.448;7.904;2024-01-30T12:37:44;99477.91;;;9.97;72.22
46392;BME280;32098;49.448;7.904;2024-01-30T12:40:12;99444.88;;;9.76;72.49
46392;BME280;32098;49.448;7.904;2024-01-30T12:42:42;99485.34;;;10.01;72.24
46392;BME280;32098;49.448;7.904;2024-01-30T12:45:18;99475.53;;;10.02;72.40
46392;BME280;32098;49.448;7.904;2024-01-30T12:47:49;99481.84;;;10.01;72.73
46392;BME280;32098;49.448;7.904;2024-01-30T12:50:16;99486.25;;;10.08;72.68
46392;BME280;32098;49.448;7.904;2024-01-30T12:52:44;99445.44;;;9.86;72.68
46392;BME280;32098;49.448;7.904;2024-01-30T12:55:14;99481.78;;;10.09;72.92
46392;BME280;32098;49.448;7.904;2024-01-30T12:57:40;99483.16;;;10.05;73.13
46392;BME280;32098;49.448;7.904;2024-01-30T13:00:08;99480.66;;;10.03;73.17
46392;BME280;32098;49.448;7.904;2024-01-30T13:02:35;99490.59;;;10.09;73.44
46392;BME280;32098;49.448;7.904;2024-01-30T13:05:03;99452.50;;;9.94;73.54
46392;BME280;32098;49.448;7.904;2024-01-30T13:07:31;99483.78;;;10.07;73.80
46392;BME280;32098;49.448;7.904;2024-01-30T13:09:58;99483.03;;;10.13;74.17
46392;BME280;32098;49.448;7.904;2024-01-30T13:12:30;99460.56;;;10.01;74.15
46392;BME280;32098;49.448;7.904;2024-01-30T13:14:59;99471.13;;;10.09;74.02